createdAt,value
2022-10-24T00:01:39.423Z,12.02
2022-10-24T00:04:08.266Z,12.13
2022-10-24T00:06:36.194Z,11.98
2022-10-24T00:09:05.039Z,11.88
2022-10-24T00:11:33.617Z,11.85
2022-10-24T00:14:02.336Z,12.48
2022-10-24T00:16:30.482Z,12.35
2022-10-24T00:18:58.456Z,12.43
2022-10-24T00:21:26.385Z,13.13
2022-10-24T00:23:54.341Z,14.43
2022-10-24T00:26:22.268Z,14.02
2022-10-24T00:28:50.231Z,14.05
2022-10-24T00:31:20.445Z,13.57
2022-10-24T00:33:49.587Z,12.20
2022-10-24T00:36:21.489Z,13.02
2022-10-24T00:38:51.176Z,13.18
2022-10-24T00:41:35.021Z,13.43
2022-10-24T00:44:27.765Z,12.75
2022-10-24T00:47:16.042Z,13.23
2022-10-24T00:50:02.244Z,12.90
2022-10-24T00:52:38.325Z,13.35
2022-10-24T00:55:08.710Z,13.05
2022-10-24T00:57:55.285Z,13.15
2022-10-24T01:00:31.442Z,13.25
2022-10-24T01:03:01.681Z,12.98
2022-10-24T01:05:46.334Z,13.00
2022-10-24T01:08:47.671Z,14.27
2022-10-24T01:11:46.502Z,14.20
2022-10-24T01:14:45.615Z,13.27
2022-10-24T01:17:27.327Z,14.68
2022-10-24T01:19:57.998Z,14.55
2022-10-24T01:22:55.420Z,15.18
2022-10-24T01:25:59.006Z,14.23
2022-10-24T01:29:07.329Z,13.57
2022-10-24T01:31:56.106Z,14.43
2022-10-24T01:34:40.118Z,13.95
2022-10-24T01:37:25.519Z,13.15
2022-10-24T01:40:02.681Z,13.38
2022-10-24T01:42:34.169Z,13.27
2022-10-24T01:45:03.964Z,13.90
2022-10-24T01:47:42.325Z,14.02
2022-10-24T01:50:13.782Z,15.98
2022-10-24T01:52:45.707Z,14.48
2022-10-24T01:55:14.537Z,13.27
2022-10-24T01:57:43.003Z,12.73
2022-10-24T02:00:21.189Z,13.65
2022-10-24T02:03:16.636Z,15.15
2022-10-24T02:05:51.012Z,13.02
2022-10-24T02:08:28.483Z,13.82
2022-10-24T02:11:02.613Z,14.60
2022-10-24T02:13:59.494Z,14.65
2022-10-24T02:16:28.068Z,15.13
2022-10-24T02:18:59.844Z,16.45
2022-10-24T02:25:00.482Z,14.55
2022-10-24T02:27:55.865Z,13.85
2022-10-24T02:30:26.763Z,14.38
2022-10-24T02:32:58.571Z,14.40
2022-10-24T02:38:39.357Z,13.05
2022-10-24T02:41:13.937Z,14.18
2022-10-24T02:43:44.696Z,14.13
2022-10-24T02:46:13.879Z,13.97
2022-10-24T02:48:48.149Z,14.30
2022-10-24T02:51:20.664Z,14.88
2022-10-24T02:53:51.899Z,15.23
2022-10-24T02:56:20.039Z,14.77
2022-10-24T02:58:48.450Z,15.20
2022-10-24T03:01:16.535Z,13.75
2022-10-24T03:03:44.916Z,13.90
2022-10-24T03:06:15.136Z,15.13
2022-10-24T03:08:43.414Z,14.70
2022-10-24T03:11:11.958Z,14.55
2022-10-24T03:13:39.845Z,14.27
2022-10-24T03:16:11.618Z,13.93
2022-10-24T03:18:42.218Z,13.88
2022-10-24T03:21:10.197Z,14.95
2022-10-24T03:23:38.292Z,14.07
2022-10-24T03:26:06.562Z,13.80
2022-10-24T03:28:35.799Z,14.23
2022-10-24T03:31:04.131Z,13.65
2022-10-24T03:33:32.488Z,13.18
2022-10-24T03:36:00.875Z,13.10
2022-10-24T03:38:28.955Z,14.10
2022-10-24T03:40:56.963Z,12.25
2022-10-24T03:43:25.959Z,13.43
2022-10-24T03:45:53.891Z,13.02
2022-10-24T03:48:23.052Z,13.52
2022-10-24T03:50:50.961Z,13.98
2022-10-24T03:53:19.724Z,13.55
2022-10-24T03:55:47.809Z,13.48
2022-10-24T03:58:15.715Z,13.63
2022-10-24T04:00:43.998Z,14.30
2022-10-24T04:03:12.782Z,13.68
2022-10-24T04:05:41.420Z,13.07
2022-10-24T04:08:09.520Z,13.25
2022-10-24T04:10:37.495Z,12.75
2022-10-24T04:13:05.535Z,12.70
2022-10-24T04:15:33.683Z,13.02
2022-10-24T04:18:01.998Z,12.18
2022-10-24T04:20:30.830Z,12.82
2022-10-24T04:23:01.195Z,13.27
2022-10-24T04:25:32.898Z,12.90
2022-10-24T04:28:01.079Z,14.50
2022-10-24T04:30:29.681Z,14.18
2022-10-24T04:32:57.829Z,14.35
2022-10-24T04:35:26.677Z,15.25
2022-10-24T04:37:54.889Z,15.95
2022-10-24T04:40:23.118Z,13.88
2022-10-24T04:42:51.056Z,14.63
2022-10-24T04:45:19.366Z,14.32
2022-10-24T04:47:48.771Z,14.73
2022-10-24T04:50:17.860Z,14.25
2022-10-24T04:52:56.220Z,14.75
2022-10-24T04:55:24.389Z,14.15
2022-10-24T04:57:52.308Z,17.55
2022-10-24T05:00:20.615Z,17.35
2022-10-24T05:02:54.145Z,15.95
2022-10-24T05:05:25.557Z,15.10
2022-10-24T05:07:53.592Z,15.45
2022-10-24T05:10:21.581Z,16.70
2022-10-24T05:12:49.689Z,16.70
2022-10-24T05:15:19.029Z,15.57
2022-10-24T05:17:47.052Z,15.40
2022-10-24T05:20:16.784Z,16.05
2022-10-24T05:22:45.028Z,15.70
2022-10-24T05:25:13.626Z,14.98
2022-10-24T05:27:41.753Z,15.00
2022-10-24T05:30:10.909Z,13.82
2022-10-24T05:32:39.817Z,14.52
2022-10-24T05:35:09.580Z,15.30
2022-10-24T05:37:39.326Z,13.45
2022-10-24T05:40:12.202Z,14.88
2022-10-24T05:42:40.800Z,13.90
2022-10-24T05:45:11.221Z,14.77
2022-10-24T05:47:39.367Z,15.45
2022-10-24T05:50:08.407Z,14.18
2022-10-24T05:52:36.679Z,16.23
2022-10-24T05:55:07.917Z,15.15
2022-10-24T05:57:38.581Z,15.18
2022-10-24T06:00:14.687Z,14.13
2022-10-24T06:02:43.590Z,14.15
2022-10-24T06:05:13.493Z,14.93
2022-10-24T06:07:44.746Z,14.60
2022-10-24T06:10:14.925Z,14.75
2022-10-24T06:12:43.199Z,15.68
2022-10-24T06:15:13.130Z,15.50
2022-10-24T06:17:41.754Z,14.63
2022-10-24T06:20:12.430Z,14.85
2022-10-24T06:22:41.001Z,14.80
2022-10-24T06:25:09.521Z,14.63
2022-10-24T06:27:37.500Z,14.57
2022-10-24T06:30:06.872Z,14.90
2022-10-24T06:32:34.890Z,14.63
2022-10-24T06:35:03.595Z,13.82
2022-10-24T06:37:31.680Z,14.13
2022-10-24T06:39:59.955Z,12.05
2022-10-24T06:42:27.967Z,15.85
2022-10-24T06:44:56.058Z,14.63
2022-10-24T06:47:24.439Z,15.05
2022-10-24T06:49:52.424Z,14.30
2022-10-24T06:52:20.640Z,14.48
2022-10-24T06:54:52.106Z,15.38
2022-10-24T06:57:20.365Z,14.30
2022-10-24T06:59:49.390Z,13.95
2022-10-24T07:02:18.177Z,12.77
2022-10-24T07:04:48.584Z,13.90
2022-10-24T07:07:22.367Z,13.60
2022-10-24T07:09:57.037Z,13.75
2022-10-24T07:12:27.095Z,12.15
2022-10-24T07:14:55.396Z,12.70
2022-10-24T07:17:24.614Z,11.68
2022-10-24T07:19:54.232Z,12.63
2022-10-24T07:22:22.322Z,12.77
2022-10-24T07:24:57.026Z,11.73
2022-10-24T07:27:25.009Z,11.20
2022-10-24T07:29:53.400Z,12.52
2022-10-24T07:32:22.098Z,11.77
2022-10-24T07:34:50.200Z,12.48
2022-10-24T07:37:19.056Z,12.25
2022-10-24T07:39:47.416Z,11.57
2022-10-24T07:42:16.796Z,11.60
2022-10-24T07:44:46.068Z,12.27
2022-10-24T07:47:15.456Z,11.82
2022-10-24T07:49:43.375Z,11.63
2022-10-24T07:52:11.294Z,11.70
2022-10-24T07:54:39.397Z,12.25
2022-10-24T07:57:07.775Z,11.65
2022-10-24T07:59:42.262Z,12.05
2022-10-24T08:02:16.022Z,12.35
2022-10-24T08:04:44.214Z,12.35
2022-10-24T08:07:15.986Z,11.40
2022-10-24T08:09:48.134Z,12.23
2022-10-24T08:12:16.382Z,12.43
2022-10-24T08:14:44.730Z,12.13
2022-10-24T08:17:13.735Z,12.50
2022-10-24T08:19:43.902Z,13.23
2022-10-24T08:22:12.966Z,13.32
2022-10-24T08:24:44.938Z,12.95
2022-10-24T08:27:16.492Z,12.50
2022-10-24T08:29:44.444Z,12.90
2022-10-24T08:32:12.720Z,12.13
2022-10-24T08:34:40.567Z,10.50
2022-10-24T08:37:08.506Z,10.50
2022-10-24T08:39:38.374Z,10.43
2022-10-24T08:42:13.901Z,10.77
2022-10-24T08:44:47.466Z,10.55
2022-10-24T08:47:42.586Z,9.60
2022-10-24T08:50:33.734Z,10.25
2022-10-24T08:53:06.740Z,9.47
2022-10-24T08:55:50.278Z,9.50
2022-10-24T08:58:40.983Z,10.57
2022-10-24T09:01:21.677Z,9.75
2022-10-24T09:03:57.259Z,9.55
2022-10-24T09:06:32.660Z,9.10
2022-10-24T09:09:11.045Z,9.60
2022-10-24T09:11:57.600Z,9.65
2022-10-24T09:14:33.947Z,8.65
2022-10-24T09:17:23.947Z,9.13
2022-10-24T09:20:22.118Z,8.73
2022-10-24T09:22:50.475Z,7.60
2022-10-24T09:25:24.432Z,8.25
2022-10-24T09:27:52.566Z,8.80
2022-10-24T09:30:30.050Z,9.15
2022-10-24T09:33:30.909Z,8.45
2022-10-24T09:36:03.247Z,8.30
2022-10-24T09:38:36.720Z,7.65
2022-10-24T09:41:19.390Z,8.18
2022-10-24T09:43:58.895Z,7.90
2022-10-24T09:46:39.855Z,7.70
2022-10-24T09:49:23.096Z,7.13
2022-10-24T09:52:27.205Z,7.30
2022-10-24T09:55:17.506Z,6.70
2022-10-24T09:57:46.564Z,8.00
2022-10-24T10:00:32.382Z,7.25
2022-10-24T10:03:22.803Z,6.90
2022-10-24T10:05:58.136Z,7.22
2022-10-24T10:08:32.679Z,6.53
2022-10-24T10:11:05.050Z,7.00
2022-10-24T10:13:46.062Z,7.75
2022-10-24T10:16:28.685Z,6.35
2022-10-24T10:19:21.034Z,6.55
2022-10-24T10:22:06.810Z,6.57
2022-10-24T10:24:40.166Z,6.60
2022-10-24T10:27:37.979Z,6.90
2022-10-24T10:30:21.374Z,6.72
2022-10-24T10:33:54.462Z,6.85
2022-10-24T10:36:42.407Z,6.35
2022-10-24T10:39:32.829Z,6.53
2022-10-24T10:42:22.278Z,6.57
2022-10-24T10:45:23.084Z,6.63
2022-10-24T10:48:33.082Z,7.43
2022-10-24T10:51:24.158Z,7.10
2022-10-24T10:54:03.580Z,6.60
2022-10-24T10:56:43.682Z,6.97
2022-10-24T10:59:41.958Z,6.80
2022-10-24T11:02:49.492Z,6.60
2022-10-24T11:05:40.482Z,6.95
2022-10-24T11:08:28.015Z,6.93
2022-10-24T11:11:05.132Z,6.65
2022-10-24T11:13:49.192Z,7.15
2022-10-24T11:16:25.255Z,6.07
2022-10-24T11:19:01.602Z,5.40
2022-10-24T11:21:34.223Z,5.57
2022-10-24T11:24:16.985Z,6.32
2022-10-24T11:27:24.400Z,5.85
2022-10-24T11:30:05.323Z,6.00
2022-10-24T11:32:59.506Z,6.03
2022-10-24T11:35:33.540Z,6.05
2022-10-24T11:38:20.871Z,6.38
2022-10-24T11:40:58.647Z,5.63
2022-10-24T11:43:41.060Z,5.45
2022-10-24T11:46:22.528Z,6.30
2022-10-24T11:49:05.146Z,5.75
2022-10-24T11:51:59.068Z,5.70
2022-10-24T11:54:41.590Z,6.07
2022-10-24T11:57:36.253Z,5.63
2022-10-24T12:00:08.333Z,5.28
2022-10-24T12:03:25.979Z,6.20
2022-10-24T12:06:28.720Z,5.85
2022-10-24T12:09:52.367Z,5.80
2022-10-24T12:12:56.963Z,6.13
2022-10-24T12:15:57.643Z,6.55
2022-10-24T12:18:44.498Z,6.15
2022-10-24T12:21:27.447Z,6.18
2022-10-24T12:23:59.208Z,5.78
2022-10-24T12:26:31.180Z,6.47
2022-10-24T12:29:06.465Z,6.40
2022-10-24T12:31:38.955Z,6.20
2022-10-24T12:34:19.175Z,6.18
2022-10-24T12:37:12.353Z,6.32
2022-10-24T12:39:50.971Z,6.28
2022-10-24T12:42:26.120Z,6.25
2022-10-24T12:45:08.867Z,6.55
2022-10-24T12:50:34.388Z,6.55
2022-10-24T12:53:21.643Z,6.57
2022-10-24T12:55:49.489Z,6.32
2022-10-24T12:58:35.686Z,6.63
2022-10-24T13:01:35.427Z,6.78
2022-10-24T13:04:47.634Z,7.05
2022-10-24T13:07:50.772Z,7.13
2022-10-24T13:10:34.817Z,6.68
2022-10-24T13:13:24.731Z,6.80
2022-10-24T13:16:07.406Z,7.38
2022-10-24T13:19:03.483Z,7.22
2022-10-24T13:24:35.025Z,6.82
2022-10-24T13:27:12.979Z,6.72
2022-10-24T13:29:44.506Z,7.07
2022-10-24T13:32:18.699Z,6.82
2022-10-24T13:34:54.488Z,6.57
2022-10-24T13:37:45.440Z,6.38
2022-10-24T13:40:46.271Z,6.40
2022-10-24T13:43:21.515Z,7.15
2022-10-24T13:46:13.036Z,6.93
2022-10-24T13:48:48.403Z,7.15
2022-10-24T13:51:46.632Z,7.00
2022-10-24T13:54:22.500Z,6.75
2022-10-24T13:56:50.832Z,8.00
2022-10-24T13:59:39.483Z,7.30
2022-10-24T14:02:19.781Z,6.43
2022-10-24T14:04:53.679Z,7.05
2022-10-24T14:07:33.877Z,7.00
2022-10-24T14:10:22.912Z,6.90
2022-10-24T14:12:57.027Z,6.72
2022-10-24T14:15:33.003Z,6.57
2022-10-24T14:18:08.594Z,6.68
2022-10-24T14:20:38.183Z,7.10
2022-10-24T14:23:28.362Z,7.55
2022-10-24T14:26:11.906Z,7.72
2022-10-24T14:28:51.994Z,7.72
2022-10-24T14:31:26.850Z,8.93
2022-10-24T14:33:57.006Z,8.30
2022-10-24T14:36:32.018Z,8.10
2022-10-24T14:39:01.293Z,7.68
2022-10-24T14:41:35.111Z,7.95
2022-10-24T14:44:05.004Z,8.13
2022-10-24T14:46:46.879Z,7.55
2022-10-24T14:49:26.658Z,7.88
2022-10-24T14:52:02.554Z,7.65
2022-10-24T14:54:35.482Z,7.45
2022-10-24T14:57:10.309Z,6.85
2022-10-24T14:59:46.572Z,6.90
2022-10-24T15:02:29.441Z,6.80
2022-10-24T15:05:40.349Z,6.80
2022-10-24T15:08:26.545Z,6.20
2022-10-24T15:11:25.251Z,6.20
2022-10-24T15:14:06.110Z,5.93
2022-10-24T15:16:42.824Z,6.15
2022-10-24T15:19:18.269Z,6.60
2022-10-24T15:21:47.450Z,6.68
2022-10-24T15:24:27.869Z,6.75
2022-10-24T15:27:14.257Z,7.68
2022-10-24T15:29:42.288Z,7.40
2022-10-24T15:32:11.578Z,7.88
2022-10-24T15:34:41.054Z,7.25
2022-10-24T15:37:23.163Z,6.95
2022-10-24T15:39:52.839Z,6.22
2022-10-24T15:42:22.682Z,7.20
2022-10-24T15:44:51.179Z,6.60
2022-10-24T15:47:23.946Z,7.22
2022-10-24T15:49:52.526Z,7.45
2022-10-24T15:52:20.608Z,13.82
2022-10-24T15:54:48.569Z,15.75
2022-10-24T15:57:18.665Z,21.13
2022-10-24T15:59:46.653Z,13.93
2022-10-24T16:02:22.016Z,13.23
2022-10-24T16:04:51.297Z,12.80
2022-10-24T16:07:21.012Z,21.10
2022-10-24T16:09:49.149Z,17.73
2022-10-24T16:12:18.979Z,18.10
2022-10-24T16:14:54.903Z,16.65
2022-10-24T16:17:23.092Z,15.30
2022-10-24T16:19:51.067Z,16.23
2022-10-24T16:22:19.237Z,16.52
2022-10-24T16:24:47.264Z,15.73
2022-10-24T16:27:15.873Z,16.42
2022-10-24T16:29:43.990Z,17.02
2022-10-24T16:32:14.937Z,16.98
2022-10-24T16:34:45.336Z,18.48
2022-10-24T16:37:13.877Z,15.32
2022-10-24T16:39:42.857Z,15.02
2022-10-24T16:42:11.296Z,12.85
2022-10-24T16:44:39.320Z,12.52
2022-10-24T16:47:07.606Z,11.75
2022-10-24T16:49:36.178Z,12.20
2022-10-24T16:52:04.221Z,12.80
2022-10-24T16:54:32.197Z,11.75
2022-10-24T16:57:40.898Z,12.50
2022-10-24T17:00:15.311Z,16.92
2022-10-24T17:02:51.293Z,15.82
2022-10-24T17:05:22.791Z,16.55
2022-10-24T17:07:54.016Z,18.10
2022-10-24T17:10:56.507Z,15.98
2022-10-24T17:13:25.411Z,16.35
2022-10-24T17:15:54.073Z,15.65
2022-10-24T17:18:23.688Z,15.35
2022-10-24T17:20:54.855Z,15.02
2022-10-24T17:23:23.220Z,11.23
2022-10-24T17:25:51.945Z,10.45
2022-10-24T17:28:20.263Z,10.95
2022-10-24T17:30:48.699Z,9.35
2022-10-24T17:33:17.035Z,9.50
2022-10-24T17:35:56.042Z,11.10
2022-10-24T17:38:52.436Z,11.43
2022-10-24T17:41:33.849Z,10.65
2022-10-24T17:44:03.902Z,10.70
2022-10-24T17:46:32.384Z,10.90
2022-10-24T17:49:00.575Z,10.77
2022-10-24T17:51:28.776Z,11.80
2022-10-24T17:53:56.946Z,11.57
2022-10-24T17:56:25.941Z,11.07
2022-10-24T17:58:54.585Z,9.98
2022-10-24T18:01:22.966Z,10.48
2022-10-24T18:03:51.793Z,10.63
2022-10-24T18:06:20.709Z,10.00
2022-10-24T18:08:49.023Z,11.25
2022-10-24T18:11:17.258Z,11.65
2022-10-24T18:13:45.425Z,12.20
2022-10-24T18:16:17.103Z,11.23
2022-10-24T18:21:24.921Z,11.13
2022-10-24T18:23:54.451Z,11.45
2022-10-24T18:26:26.306Z,12.25
2022-10-24T18:28:58.350Z,11.05
2022-10-24T18:31:29.713Z,12.05
2022-10-24T18:34:04.859Z,11.95
2022-10-24T18:36:37.136Z,11.13
2022-10-24T18:39:06.194Z,12.27
2022-10-24T18:41:56.138Z,11.98
2022-10-24T18:44:37.313Z,12.43
2022-10-24T18:47:08.135Z,11.95
2022-10-24T18:49:36.753Z,12.27
2022-10-24T18:52:11.211Z,11.35
2022-10-24T18:55:06.873Z,12.23
2022-10-24T18:57:36.994Z,10.70
2022-10-24T19:00:07.109Z,12.70
2022-10-24T19:02:58.886Z,13.30
2022-10-24T19:06:08.612Z,12.35
2022-10-24T19:08:37.180Z,11.60
2022-10-24T19:14:00.372Z,12.85
2022-10-24T19:19:02.304Z,11.65
2022-10-24T19:21:30.396Z,12.77
2022-10-24T19:24:02.124Z,12.25
2022-10-24T19:29:01.067Z,13.32
2022-10-24T19:31:31.693Z,13.80
2022-10-24T19:33:59.992Z,14.40
2022-10-24T19:36:28.183Z,14.07
2022-10-24T19:38:58.283Z,14.25
2022-10-24T19:41:27.240Z,15.38
2022-10-24T19:43:55.643Z,13.05
2022-10-24T19:46:23.852Z,12.85
2022-10-24T19:48:55.494Z,13.30
2022-10-24T19:51:25.524Z,12.52
2022-10-24T19:53:53.738Z,12.15
2022-10-24T19:56:27.048Z,12.77
2022-10-24T19:59:02.072Z,14.48
2022-10-24T20:01:31.047Z,13.80
2022-10-24T20:04:00.946Z,13.20
2022-10-24T20:06:31.565Z,13.40
2022-10-24T20:09:00.376Z,13.52
2022-10-24T20:11:28.817Z,13.30
2022-10-24T20:13:57.329Z,12.68
2022-10-24T20:16:25.965Z,13.07
2022-10-24T20:18:58.427Z,14.35
2022-10-24T20:21:29.973Z,13.52
2022-10-24T20:24:00.403Z,12.60
2022-10-24T20:26:28.801Z,12.50
2022-10-24T20:28:58.288Z,12.15
2022-10-24T20:31:32.409Z,13.23
2022-10-24T20:34:07.979Z,12.50
2022-10-24T20:36:44.779Z,13.80
2022-10-24T20:39:16.364Z,12.48
2022-10-24T20:42:12.376Z,13.07
2022-10-24T20:44:40.447Z,11.70
2022-10-24T20:47:08.422Z,11.77
2022-10-24T20:49:36.456Z,11.77
2022-10-24T20:52:04.998Z,11.73
2022-10-24T20:54:37.723Z,12.27
2022-10-24T20:57:05.689Z,12.55
2022-10-24T20:59:33.896Z,12.85
2022-10-24T21:02:02.292Z,12.07
2022-10-24T21:04:30.283Z,11.20
2022-10-24T21:06:58.258Z,12.45
2022-10-24T21:09:26.321Z,12.13
2022-10-24T21:11:55.236Z,11.43
2022-10-24T21:14:23.197Z,11.73
2022-10-24T21:16:51.237Z,11.93
2022-10-24T21:19:19.170Z,11.05
2022-10-24T21:21:47.168Z,11.55
2022-10-24T21:24:25.146Z,12.10
2022-10-24T21:26:54.113Z,11.52
2022-10-24T21:29:32.666Z,11.82
2022-10-24T21:32:02.094Z,12.40
2022-10-24T21:34:33.433Z,11.43
2022-10-24T21:37:04.448Z,11.93
2022-10-24T21:39:33.336Z,12.05
2022-10-24T21:42:01.253Z,11.93
2022-10-24T21:44:30.838Z,12.07
2022-10-24T21:46:58.983Z,11.93
2022-10-24T21:49:26.972Z,12.73
2022-10-24T21:51:54.915Z,11.90
2022-10-24T21:54:25.439Z,12.25
2022-10-24T21:56:53.492Z,11.88
2022-10-24T21:59:22.711Z,12.52
2022-10-24T22:01:52.273Z,12.27
2022-10-24T22:04:20.768Z,11.52
2022-10-24T22:06:49.646Z,11.40
2022-10-24T22:09:21.199Z,12.43
2022-10-24T22:11:51.076Z,11.25
2022-10-24T22:14:19.509Z,11.63
2022-10-24T22:16:48.046Z,11.55
2022-10-24T22:19:16.536Z,11.52
2022-10-24T22:22:00.465Z,12.68
2022-10-24T22:24:58.634Z,12.63
2022-10-24T22:27:26.612Z,12.60
2022-10-24T22:29:54.607Z,13.75
2022-10-24T22:32:23.252Z,12.65
2022-10-24T22:34:52.301Z,13.10
2022-10-24T22:37:30.174Z,12.43
2022-10-24T22:39:58.488Z,12.30
2022-10-24T22:42:26.580Z,12.48
2022-10-24T22:44:55.166Z,12.32
2022-10-24T22:47:46.664Z,12.30
2022-10-24T22:50:53.502Z,12.95
2022-10-24T22:53:31.393Z,13.85
2022-10-24T22:56:19.855Z,13.30
2022-10-24T22:58:48.226Z,14.10
2022-10-24T23:02:01.828Z,13.77
2022-10-24T23:05:10.971Z,13.38
2022-10-24T23:08:04.402Z,12.77
2022-10-24T23:10:33.313Z,13.07
2022-10-24T23:13:01.486Z,13.57
2022-10-24T23:15:30.094Z,13.27
2022-10-24T23:17:58.598Z,14.15
2022-10-24T23:20:36.493Z,12.98
2022-10-24T23:23:17.148Z,14.77
2022-10-24T23:26:36.224Z,14.23
2022-10-24T23:29:20.271Z,15.17
2022-10-24T23:31:48.780Z,14.15
2022-10-24T23:34:17.123Z,13.15
2022-10-24T23:36:45.606Z,14.68
2022-10-24T23:39:15.069Z,14.05
2022-10-24T23:41:43.546Z,13.88
2022-10-24T23:44:12.064Z,14.07
2022-10-24T23:46:46.927Z,14.57
2022-10-24T23:50:08.186Z,14.43
2022-10-24T23:53:16.544Z,13.55
2022-10-24T23:55:44.825Z,15.13
2022-10-24T23:58:12.908Z,14.30
